createdAt,value
2023-02-04T07:40:38.028Z,7.90
2023-02-04T07:41:12.818Z,7.92
2023-02-04T07:42:12.787Z,7.89
2023-02-04T07:43:12.769Z,7.79
2023-02-04T07:44:12.762Z,7.84
2023-02-04T07:45:12.751Z,7.89
2023-02-04T07:46:12.763Z,7.90
2023-02-04T07:47:12.759Z,7.85
2023-02-04T07:48:12.713Z,7.92
2023-02-04T07:49:12.710Z,8.02
2023-02-04T07:50:12.680Z,8.00
2023-02-04T07:51:12.674Z,8.00
2023-02-04T07:52:12.681Z,8.04
2023-02-04T07:53:12.679Z,8.02
2023-02-04T07:54:12.646Z,8.08
2023-02-04T07:55:12.647Z,8.17
2023-02-04T07:56:12.638Z,8.11
2023-02-04T07:57:12.627Z,8.15
2023-02-04T07:58:12.590Z,8.12
2023-02-04T07:59:12.577Z,8.22
2023-02-04T08:00:12.578Z,8.15
2023-02-04T08:01:12.581Z,8.20
2023-02-04T08:02:12.544Z,8.25
2023-02-04T08:03:12.572Z,8.18
2023-02-04T08:04:12.514Z,8.14
2023-02-04T08:05:12.521Z,8.21
2023-02-04T08:06:12.506Z,8.25
2023-02-04T08:07:12.495Z,8.32
2023-02-04T08:08:12.498Z,8.20
2023-02-04T08:09:12.458Z,8.20
2023-02-04T08:10:12.461Z,8.26
2023-02-04T08:11:12.449Z,8.18
2023-02-04T08:12:12.449Z,8.29
2023-02-04T08:13:12.409Z,8.22
2023-02-04T08:14:12.430Z,8.36
2023-02-04T08:15:12.386Z,8.26
2023-02-04T08:16:12.408Z,8.36
2023-02-04T08:17:12.368Z,8.36
2023-02-04T08:18:12.359Z,8.39
2023-02-04T08:19:12.371Z,8.25
2023-02-04T08:20:12.334Z,8.28
2023-02-04T08:21:12.331Z,8.36
2023-02-04T08:22:12.340Z,8.32
2023-02-04T08:23:12.294Z,8.35
2023-02-04T08:24:12.299Z,8.35
2023-02-04T08:25:12.289Z,8.29
2023-02-04T08:26:12.280Z,8.42
2023-02-04T08:27:12.264Z,8.37
2023-02-04T08:28:12.419Z,8.51
2023-02-04T08:29:12.254Z,8.42
2023-02-04T08:30:12.243Z,8.50
2023-02-04T08:31:12.352Z,8.53
2023-02-04T08:32:12.214Z,8.55
2023-02-04T08:33:12.193Z,8.58
2023-02-04T08:34:12.171Z,8.57
2023-02-04T08:35:12.201Z,8.69
2023-02-04T08:36:12.162Z,8.57
2023-02-04T08:37:12.135Z,8.66
2023-02-04T08:38:12.128Z,8.79
2023-02-04T08:39:12.114Z,8.84
2023-02-04T08:40:12.130Z,8.73
2023-02-04T08:41:12.109Z,8.86
2023-02-04T08:42:12.080Z,8.91
2023-02-04T08:43:12.063Z,8.86
2023-02-04T08:44:12.090Z,8.97
2023-02-04T08:45:12.055Z,8.99
2023-02-04T08:46:12.142Z,9.02
2023-02-04T08:47:12.030Z,8.99
2023-02-04T08:48:12.036Z,9.01
2023-02-04T08:49:12.034Z,9.04
2023-02-04T08:50:12.026Z,9.04
2023-02-04T08:51:12.004Z,9.10
2023-02-04T08:52:11.999Z,9.16
2023-02-04T08:53:11.986Z,9.12
2023-02-04T08:54:11.964Z,9.16
2023-02-04T08:55:11.961Z,9.20
2023-02-04T08:56:11.943Z,9.20
2023-02-04T08:57:11.944Z,9.24
2023-02-04T08:58:11.935Z,9.35
2023-02-04T08:59:11.914Z,9.25
2023-02-04T09:00:11.944Z,9.24
2023-02-04T09:01:11.937Z,9.30
2023-02-04T09:02:11.937Z,9.35
2023-02-04T09:03:11.878Z,9.32
2023-02-04T09:04:11.858Z,9.42
2023-02-04T09:05:11.865Z,9.52
2023-02-04T09:06:11.838Z,9.49
2023-02-04T09:07:11.835Z,9.52
2023-02-04T09:08:11.840Z,9.43
2023-02-04T09:09:11.814Z,9.57
2023-02-04T09:10:11.845Z,9.57
2023-02-04T09:11:11.778Z,9.67
2023-02-04T09:12:11.789Z,9.60
2023-02-04T09:13:11.789Z,9.61
2023-02-04T09:14:11.753Z,9.68
2023-02-04T09:15:11.734Z,9.76
2023-02-04T09:16:11.791Z,9.61
2023-02-04T09:17:11.725Z,9.71
2023-02-04T09:18:11.719Z,9.73
2023-02-04T09:19:11.687Z,9.71
2023-02-04T09:20:11.726Z,9.75
2023-02-04T09:21:11.666Z,9.73
2023-02-04T09:22:11.674Z,9.76
2023-02-04T09:23:11.657Z,9.88
2023-02-04T09:24:11.650Z,9.85
2023-02-04T09:25:11.625Z,9.91
2023-02-04T09:26:11.627Z,9.88
2023-02-04T09:27:11.632Z,9.94
2023-02-04T09:28:11.762Z,9.93
2023-02-04T09:29:11.582Z,9.96
2023-02-04T09:30:11.592Z,10.00
2023-02-04T09:31:11.762Z,10.06
2023-02-04T09:32:11.674Z,10.03
2023-02-04T09:33:11.551Z,9.96
2023-02-04T09:34:11.560Z,10.00
2023-02-04T09:35:11.511Z,10.04
2023-02-04T09:36:11.539Z,10.14
2023-02-04T09:37:11.497Z,10.22
2023-02-04T09:38:11.496Z,10.22
2023-02-04T09:39:11.491Z,10.30
2023-02-04T09:40:11.645Z,10.25
2023-02-04T09:41:11.456Z,10.37
2023-02-04T09:42:11.472Z,10.30
2023-02-04T09:43:11.435Z,10.36
2023-02-04T09:44:11.446Z,10.43
2023-02-04T09:45:11.413Z,10.42
2023-02-04T09:46:11.492Z,10.42
2023-02-04T09:47:11.386Z,10.40
2023-02-04T09:48:11.441Z,10.46
2023-02-04T09:49:11.353Z,10.42
2023-02-04T09:50:11.381Z,10.53
2023-02-04T09:51:11.381Z,10.56
2023-02-04T09:52:11.328Z,10.46
2023-02-04T09:53:11.308Z,10.59
2023-02-04T09:54:11.336Z,10.62
2023-02-04T09:55:11.307Z,10.55
2023-02-04T09:56:11.285Z,10.62
2023-02-04T09:57:11.253Z,10.62
2023-02-04T09:58:11.245Z,10.62
2023-02-04T09:59:11.240Z,10.65
2023-02-04T10:00:11.247Z,10.59
2023-02-04T10:01:11.337Z,10.58
2023-02-04T10:02:11.194Z,10.58
2023-02-04T10:03:11.179Z,10.70
2023-02-04T10:04:11.204Z,10.66
2023-02-04T10:05:11.175Z,10.78
2023-02-04T10:06:11.147Z,10.81
2023-02-04T10:07:11.144Z,10.68
2023-02-04T10:08:11.120Z,10.74
2023-02-04T10:09:11.129Z,10.83
2023-02-04T10:10:11.126Z,10.80
2023-02-04T10:11:11.083Z,10.92
2023-02-04T10:12:11.085Z,10.92
2023-02-04T10:13:11.072Z,10.96
2023-02-04T10:14:11.049Z,10.88
2023-02-04T10:15:11.067Z,10.94
2023-02-04T10:16:11.098Z,10.89
2023-02-04T10:17:11.024Z,10.95
2023-02-04T10:18:11.003Z,10.96
2023-02-04T10:19:11.004Z,10.98
2023-02-04T10:20:11.090Z,11.03
2023-02-04T10:21:10.975Z,10.88
2023-02-04T10:22:10.976Z,10.95
2023-02-04T10:23:12.704Z,10.98
2023-02-04T10:24:10.948Z,10.91
2023-02-04T10:25:10.928Z,10.89
2023-02-04T10:26:10.922Z,11.01
2023-02-04T10:27:10.922Z,10.91
2023-02-04T10:28:10.935Z,10.92
2023-02-04T10:29:10.875Z,10.89
2023-02-04T10:30:10.879Z,10.96
2023-02-04T10:31:10.976Z,10.96
2023-02-04T10:32:10.879Z,10.94
2023-02-04T10:33:10.831Z,11.03
2023-02-04T10:34:10.836Z,10.92
2023-02-04T10:35:10.811Z,10.95
2023-02-04T10:36:10.824Z,11.01
2023-02-04T10:37:10.814Z,11.02
2023-02-04T10:38:10.793Z,11.07
2023-02-04T10:39:10.788Z,10.94
2023-02-04T10:40:10.770Z,10.96
2023-02-04T10:41:10.759Z,10.94
2023-02-04T10:42:10.756Z,10.95
2023-02-04T10:43:10.722Z,10.98
2023-02-04T10:44:10.736Z,10.94
2023-02-04T10:45:10.711Z,10.81
2023-02-04T10:46:10.709Z,10.94
2023-02-04T10:47:10.692Z,10.89
2023-02-04T10:48:10.702Z,10.84
2023-02-04T10:49:11.485Z,10.95
2023-02-04T10:50:10.646Z,10.86
2023-02-04T10:51:10.645Z,10.86
2023-02-04T10:52:10.658Z,10.76
2023-02-04T10:53:10.653Z,10.95
2023-02-04T10:54:10.635Z,10.80
2023-02-04T10:55:10.585Z,10.78
2023-02-04T10:56:10.596Z,10.83
2023-02-04T10:57:10.578Z,10.73
2023-02-04T10:58:10.569Z,10.73
2023-02-04T10:59:10.578Z,10.73
2023-02-04T11:00:10.544Z,10.68
2023-02-04T11:01:10.570Z,10.76
2023-02-04T11:02:10.528Z,10.56
2023-02-04T11:03:10.641Z,10.68
2023-02-04T11:04:10.525Z,10.59
2023-02-04T11:05:10.487Z,10.65
2023-02-04T11:06:10.482Z,10.65
2023-02-04T11:07:10.450Z,10.74
2023-02-04T11:08:10.481Z,10.68
2023-02-04T11:09:10.450Z,10.62
2023-02-04T11:10:10.418Z,10.74
2023-02-04T11:11:10.424Z,10.74
2023-02-04T11:12:10.397Z,10.66
2023-02-04T11:13:10.399Z,10.59
2023-02-04T11:14:10.425Z,10.76
2023-02-04T11:15:10.361Z,10.71
2023-02-04T11:16:10.481Z,10.76
2023-02-04T11:17:10.355Z,10.76
2023-02-04T11:18:10.360Z,10.59
2023-02-04T11:19:10.326Z,10.73
2023-02-04T11:20:10.305Z,10.73
2023-02-04T11:21:10.288Z,10.78
2023-02-04T11:22:10.385Z,10.74
2023-02-04T11:23:10.283Z,10.84
2023-02-04T11:24:10.321Z,10.76
2023-02-04T11:25:10.247Z,10.89
2023-02-04T11:26:10.265Z,10.95
2023-02-04T11:27:10.223Z,10.86
2023-02-04T11:28:10.263Z,10.95
2023-02-04T11:29:10.231Z,10.88
2023-02-04T11:30:10.205Z,10.96
2023-02-04T11:31:10.314Z,10.95
2023-02-04T11:32:10.197Z,10.83
2023-02-04T11:33:10.165Z,10.94
2023-02-04T11:34:10.177Z,10.88
2023-02-04T11:35:10.127Z,10.83
2023-02-04T11:36:10.120Z,10.96
2023-02-04T11:37:10.123Z,10.91
2023-02-04T11:38:10.102Z,10.92
2023-02-04T11:39:10.117Z,11.01
2023-02-04T11:40:10.094Z,10.96
2023-02-04T11:41:10.058Z,10.84
2023-02-04T11:42:10.053Z,11.01
2023-02-04T11:43:10.037Z,11.01
2023-02-04T11:44:10.043Z,11.06
2023-02-04T11:45:10.028Z,11.07
2023-02-04T11:46:10.182Z,11.13
2023-02-04T11:47:10.000Z,11.14
2023-02-04T11:48:09.994Z,11.32
2023-02-04T11:49:09.998Z,11.28
2023-02-04T11:50:09.997Z,11.28
2023-02-04T11:51:09.942Z,11.31
2023-02-04T11:52:09.947Z,11.44
2023-02-04T11:53:09.951Z,11.36
2023-02-04T11:54:09.948Z,11.54
2023-02-04T11:55:09.912Z,11.50
2023-02-04T11:56:09.926Z,11.64
2023-02-04T11:57:09.888Z,11.72
2023-02-04T11:58:09.874Z,11.72
2023-02-04T11:59:09.887Z,11.77
2023-02-04T12:00:09.863Z,11.70
2023-02-04T12:01:09.830Z,11.68
2023-02-04T12:02:09.823Z,11.80
2023-02-04T12:03:09.810Z,11.85
2023-02-04T12:04:09.857Z,11.93
2023-02-04T12:05:09.824Z,11.80
2023-02-04T12:06:09.791Z,11.85
2023-02-04T12:07:09.763Z,11.86
2023-02-04T12:08:11.707Z,11.75
2023-02-04T12:09:09.758Z,11.74
2023-02-04T12:10:09.749Z,11.78
2023-02-04T12:11:09.731Z,11.83
2023-02-04T12:12:09.749Z,11.71
2023-02-04T12:13:09.695Z,11.77
2023-02-04T12:14:09.688Z,11.80
2023-02-04T12:15:09.699Z,11.57
2023-02-04T12:16:09.769Z,11.74
2023-02-04T12:17:09.648Z,11.78
2023-02-04T12:18:09.657Z,11.75
2023-02-04T12:19:09.644Z,11.67
2023-02-04T12:20:09.636Z,11.75
2023-02-04T12:21:09.619Z,11.77
2023-02-04T12:22:09.603Z,11.77
2023-02-04T12:23:09.595Z,11.75
2023-02-04T12:24:09.587Z,11.72
2023-02-04T12:25:09.592Z,11.65
2023-02-04T12:26:09.560Z,11.75
2023-02-04T12:27:09.554Z,11.67
2023-02-04T12:28:09.651Z,11.87
2023-02-04T12:29:09.535Z,11.82
2023-02-04T12:30:09.539Z,11.86
2023-02-04T12:31:09.766Z,11.86
2023-02-04T12:32:09.565Z,11.75
2023-02-04T12:33:09.486Z,11.85
2023-02-04T12:34:09.473Z,11.82
2023-02-04T12:35:09.478Z,11.83
2023-02-04T12:36:09.436Z,11.85
2023-02-04T12:37:09.430Z,11.83
2023-02-04T12:38:09.433Z,11.89
2023-02-04T12:39:09.413Z,11.90
2023-02-04T12:40:09.399Z,11.82
2023-02-04T12:41:09.393Z,11.90
2023-02-04T12:42:09.381Z,11.93
2023-02-04T12:43:09.370Z,11.94
2023-02-04T12:44:09.371Z,11.99
2023-02-04T12:45:09.347Z,12.01
2023-02-04T12:46:09.365Z,12.09
2023-02-04T12:47:09.326Z,12.11
2023-02-04T12:48:09.345Z,12.08
2023-02-04T12:49:09.776Z,12.11
2023-02-04T12:50:09.306Z,12.20
2023-02-04T12:51:09.278Z,12.12
2023-02-04T12:52:09.247Z,12.09
2023-02-04T12:53:09.256Z,12.26
2023-02-04T12:54:09.226Z,12.23
2023-02-04T12:55:09.240Z,12.26
2023-02-04T12:56:09.203Z,12.29
2023-02-04T12:57:09.197Z,12.27
2023-02-04T12:58:09.193Z,12.39
2023-02-04T12:59:09.198Z,12.45
2023-02-04T13:00:09.210Z,12.46
2023-02-04T13:01:09.213Z,12.37
2023-02-04T13:02:09.229Z,12.38
2023-02-04T13:03:09.141Z,12.31
2023-02-04T13:04:09.129Z,12.20
2023-02-04T13:05:09.103Z,12.23
2023-02-04T13:06:09.122Z,12.31
2023-02-04T13:07:09.115Z,12.37
2023-02-04T13:08:09.080Z,12.48
2023-02-04T13:09:09.073Z,12.45
2023-02-04T13:10:09.060Z,12.42
2023-02-04T13:11:09.046Z,12.57
2023-02-04T13:12:09.050Z,12.56
2023-02-04T13:13:09.028Z,12.69
2023-02-04T13:14:09.015Z,12.81
2023-02-04T13:15:09.002Z,12.78
2023-02-04T13:16:09.029Z,12.79
2023-02-04T13:17:08.998Z,12.79
2023-02-04T13:18:08.962Z,12.81
2023-02-04T13:19:08.945Z,12.81
2023-02-04T13:20:08.930Z,13.00
2023-02-04T13:21:08.921Z,13.02
2023-02-04T13:22:08.918Z,13.04
2023-02-04T13:23:08.930Z,13.12
2023-02-04T13:24:08.895Z,13.06
2023-02-04T13:25:08.876Z,13.11
2023-02-04T13:26:08.878Z,12.99
2023-02-04T13:27:08.854Z,13.04
2023-02-04T13:28:08.924Z,13.09
2023-02-04T13:29:08.846Z,13.09
2023-02-04T13:30:08.814Z,13.09
2023-02-04T13:31:08.910Z,13.14
2023-02-04T13:32:08.818Z,13.09
2023-02-04T13:33:08.802Z,13.11
2023-02-04T13:34:08.800Z,13.11
2023-02-04T13:35:08.768Z,13.07
2023-02-04T13:36:08.750Z,12.99
2023-02-04T13:37:08.739Z,13.22
2023-02-04T13:38:08.738Z,13.06
2023-02-04T13:39:08.726Z,13.09
2023-02-04T13:40:08.738Z,13.09
2023-02-04T13:41:08.697Z,13.06
2023-02-04T13:42:08.695Z,13.11
2023-02-04T13:43:08.707Z,13.17
2023-02-04T13:44:08.673Z,13.21
2023-02-04T13:45:08.680Z,13.37
2023-02-04T13:46:08.688Z,13.58
2023-02-04T13:47:08.629Z,13.59
2023-02-04T13:48:08.664Z,13.63
2023-02-04T13:49:08.622Z,13.65
2023-02-04T13:50:08.632Z,13.59
2023-02-04T13:51:08.599Z,13.59
2023-02-04T13:52:08.583Z,13.46
2023-02-04T13:53:08.568Z,13.41
2023-02-04T13:54:08.553Z,13.25
2023-02-04T13:55:08.552Z,13.22
2023-02-04T13:56:08.541Z,13.09
2023-02-04T13:57:08.524Z,13.07
2023-02-04T13:58:08.504Z,12.97
2023-02-04T13:59:08.498Z,12.89
2023-02-04T14:00:08.569Z,12.93
2023-02-04T14:01:08.565Z,12.89
2023-02-04T14:02:08.519Z,12.77
2023-02-04T14:03:08.468Z,12.79
2023-02-04T14:04:08.473Z,12.74
2023-02-04T14:05:08.446Z,12.64
2023-02-04T14:06:08.433Z,12.54
2023-02-04T14:07:08.424Z,12.49
2023-02-04T14:08:08.389Z,12.42
2023-02-04T14:09:08.386Z,12.38
2023-02-04T14:10:08.482Z,12.34
2023-02-04T14:11:08.359Z,12.37
2023-02-04T14:12:08.370Z,12.31
2023-02-04T14:13:08.340Z,12.16
2023-02-04T14:14:08.320Z,12.26
2023-02-04T14:15:08.332Z,12.21
2023-02-04T14:16:08.365Z,12.09
2023-02-04T14:17:08.308Z,12.05
2023-02-04T14:18:08.287Z,12.01
2023-02-04T14:19:08.278Z,11.94
2023-02-04T14:20:08.352Z,11.74
2023-02-04T14:21:08.261Z,11.72
2023-02-04T14:22:08.225Z,11.62
2023-02-04T14:23:08.232Z,11.86
2023-02-04T14:24:08.210Z,11.94
2023-02-04T14:25:08.214Z,12.09
2023-02-04T14:26:08.199Z,12.23
2023-02-04T14:27:08.185Z,12.26
2023-02-04T14:28:08.227Z,12.33
2023-02-04T14:29:09.078Z,12.21
2023-02-04T14:30:08.144Z,12.27
2023-02-04T14:31:08.168Z,12.11
2023-02-04T14:32:08.146Z,12.19
2023-02-04T14:33:08.106Z,12.16
2023-02-04T14:34:08.102Z,11.89
2023-02-04T14:35:08.096Z,11.80
2023-02-04T14:36:08.081Z,11.78
2023-02-04T14:37:08.079Z,11.85
2023-02-04T14:38:08.043Z,11.64
2023-02-04T14:39:08.055Z,11.70
2023-02-04T14:40:08.022Z,11.65
2023-02-04T14:41:08.018Z,11.57
2023-02-04T14:42:08.009Z,11.59
2023-02-04T14:43:07.991Z,11.53
2023-02-04T14:44:08.008Z,11.50
2023-02-04T14:45:07.968Z,11.52
2023-02-04T14:46:08.017Z,11.38
2023-02-04T14:47:07.959Z,11.20
2023-02-04T14:48:07.940Z,11.20
2023-02-04T14:49:07.943Z,11.25
2023-02-04T14:50:07.939Z,11.21
2023-02-04T14:51:07.905Z,11.17
2023-02-04T14:52:09.730Z,11.09
2023-02-04T14:53:07.881Z,11.14
2023-02-04T14:54:07.865Z,11.14
2023-02-04T14:55:07.893Z,11.07
2023-02-04T14:56:07.855Z,11.09
2023-02-04T14:57:07.849Z,11.01
2023-02-04T14:58:07.852Z,11.02
2023-02-04T14:59:07.828Z,11.01
2023-02-04T15:00:07.807Z,10.98
2023-02-04T15:01:07.819Z,10.96
2023-02-04T15:02:07.833Z,10.89
2023-02-04T15:03:07.784Z,10.95
2023-02-04T15:04:07.752Z,10.80
2023-02-04T15:05:07.758Z,10.78
2023-02-04T15:06:07.751Z,10.77
2023-02-04T15:07:07.736Z,10.68
2023-02-04T15:08:07.736Z,10.74
2023-02-04T15:09:07.702Z,10.66
2023-02-04T15:10:07.702Z,10.71
2023-02-04T15:11:07.690Z,10.66
2023-02-04T15:12:07.689Z,10.63
2023-02-04T15:13:07.667Z,10.65
2023-02-04T15:14:07.656Z,10.58
2023-02-04T15:15:07.643Z,10.52
2023-02-04T15:16:07.629Z,10.59
2023-02-04T15:17:07.638Z,10.55
2023-02-04T15:18:07.598Z,10.51
2023-02-04T15:19:07.599Z,10.58
2023-02-04T15:20:07.596Z,10.51
2023-02-04T15:21:07.564Z,10.55
2023-02-04T15:22:07.547Z,10.55
2023-02-04T15:23:07.562Z,10.58
2023-02-04T15:24:07.541Z,10.53
2023-02-04T15:25:07.521Z,10.59
2023-02-04T15:26:07.501Z,10.55
2023-02-04T15:27:07.502Z,10.55
2023-02-04T15:28:07.577Z,10.47
2023-02-04T15:29:07.474Z,10.46
2023-02-04T15:30:07.456Z,10.56
2023-02-04T15:31:07.592Z,10.53
2023-02-04T15:32:07.444Z,10.47
2023-02-04T15:33:07.423Z,10.43
2023-02-04T15:34:07.426Z,10.58
2023-02-04T15:35:07.399Z,10.51
2023-02-04T15:36:07.383Z,10.47
2023-02-04T15:37:07.379Z,10.53
2023-02-04T15:38:07.396Z,10.47
2023-02-04T15:39:07.383Z,10.55
2023-02-04T15:40:07.372Z,10.56
2023-02-04T15:41:07.333Z,10.37
2023-02-04T15:42:07.315Z,10.40
2023-02-04T15:43:07.307Z,10.39
2023-02-04T15:44:07.305Z,10.32
2023-02-04T15:45:07.312Z,10.32
2023-02-04T15:46:07.372Z,10.30
2023-02-04T15:47:07.266Z,10.32
2023-02-04T15:48:07.287Z,10.26
2023-02-04T15:49:07.253Z,10.30
2023-02-04T15:50:07.255Z,10.25
2023-02-04T15:51:07.227Z,10.22
2023-02-04T15:52:13.461Z,10.26
2023-02-04T15:53:08.191Z,10.18
2023-02-04T15:54:07.182Z,10.22
2023-02-04T15:55:07.208Z,10.32
2023-02-04T15:56:07.213Z,10.22
2023-02-04T15:57:07.164Z,10.19
2023-02-04T15:58:07.137Z,10.24
2023-02-04T15:59:07.167Z,10.28
2023-02-04T16:00:07.113Z,10.24
2023-02-04T16:01:07.186Z,10.24
2023-02-04T16:02:07.108Z,10.14
2023-02-04T16:03:07.097Z,10.19
2023-02-04T16:04:07.073Z,10.26
2023-02-04T16:05:07.070Z,10.10
2023-02-04T16:06:07.081Z,10.19
2023-02-04T16:07:07.041Z,10.18
2023-02-04T16:08:07.047Z,10.12
2023-02-04T16:09:07.029Z,10.14
2023-02-04T16:10:07.023Z,10.12
2023-02-04T16:11:07.025Z,10.17
2023-02-04T16:12:07.021Z,10.19
2023-02-04T16:13:06.993Z,10.17
2023-02-04T16:14:06.957Z,10.17
2023-02-04T16:15:06.967Z,10.04
2023-02-04T16:16:07.012Z,10.15
2023-02-04T16:17:07.000Z,10.03
2023-02-04T16:18:06.917Z,10.06
2023-02-04T16:19:06.910Z,10.07
2023-02-04T16:20:06.909Z,10.10
2023-02-04T16:21:06.904Z,10.04
2023-02-04T16:22:06.868Z,9.97
2023-02-04T16:23:06.876Z,10.00
2023-02-04T16:24:06.861Z,9.97
2023-02-04T16:25:06.837Z,9.99
2023-02-04T16:26:06.938Z,9.99
2023-02-04T16:27:06.826Z,9.89
2023-02-04T16:28:06.908Z,9.96
2023-02-04T16:29:06.789Z,9.89
2023-02-04T16:30:06.826Z,9.88
2023-02-04T16:31:06.921Z,9.88
2023-02-04T16:32:06.805Z,9.83
2023-02-04T16:33:06.753Z,9.82
2023-02-04T16:34:06.746Z,9.75
2023-02-04T16:35:06.720Z,9.76
2023-02-04T16:36:06.715Z,9.81
2023-02-04T16:37:06.733Z,9.78
2023-02-04T16:38:06.693Z,9.68
2023-02-04T16:39:06.685Z,9.73
2023-02-04T16:40:06.678Z,9.76
2023-02-04T16:41:06.646Z,9.76
2023-02-04T16:42:06.673Z,9.79
2023-02-04T16:43:06.647Z,9.73
2023-02-04T16:44:06.650Z,9.75
2023-02-04T16:45:06.612Z,9.58
2023-02-04T16:46:06.651Z,9.60
2023-02-04T16:47:06.608Z,9.66
2023-02-04T16:48:06.581Z,9.66
2023-02-04T16:49:06.567Z,9.64
2023-02-04T16:50:06.577Z,9.63
2023-02-04T16:51:06.528Z,9.56
2023-02-04T16:52:06.561Z,9.56
2023-02-04T16:53:06.520Z,9.52
2023-02-04T16:54:06.497Z,9.58
2023-02-04T16:55:06.485Z,9.60
2023-02-04T16:56:06.506Z,9.48
2023-02-04T16:57:06.498Z,9.53
2023-02-04T16:58:06.467Z,9.48
2023-02-04T16:59:06.454Z,9.52
2023-02-04T17:00:06.491Z,9.49
2023-02-04T17:01:06.430Z,9.50
2023-02-04T17:02:06.513Z,9.50
2023-02-04T17:03:06.438Z,9.45
2023-02-04T17:04:06.390Z,9.43
2023-02-04T17:05:06.371Z,9.38
2023-02-04T17:06:06.375Z,9.45
2023-02-04T17:07:06.392Z,9.42
2023-02-04T17:08:06.340Z,9.48
2023-02-04T17:09:06.348Z,9.39
2023-02-04T17:10:06.323Z,9.34
2023-02-04T17:11:06.323Z,9.39
2023-02-04T17:12:06.325Z,9.27
2023-02-04T17:13:06.302Z,9.24
2023-02-04T17:14:06.300Z,9.30
2023-02-04T17:15:06.273Z,9.16
2023-02-04T17:16:06.336Z,9.21
2023-02-04T17:17:06.247Z,9.23
2023-02-04T17:18:06.225Z,9.12
2023-02-04T17:19:06.216Z,9.09
2023-02-04T17:20:06.203Z,9.09
2023-02-04T17:21:06.203Z,9.01
2023-02-04T17:22:06.224Z,9.09
2023-02-04T17:23:06.183Z,8.96
2023-02-04T17:24:06.165Z,9.02
2023-02-04T17:25:06.144Z,9.02
2023-02-04T17:26:06.148Z,9.02
2023-02-04T17:27:06.136Z,8.87
2023-02-04T17:28:06.306Z,8.90
2023-02-04T17:29:06.112Z,8.88
2023-02-04T17:30:06.106Z,8.84
2023-02-04T17:31:06.244Z,8.86
2023-02-04T17:32:06.107Z,8.87
2023-02-04T17:33:06.053Z,8.90
2023-02-04T17:34:06.083Z,8.91
2023-02-04T17:35:06.043Z,8.79
2023-02-04T17:36:06.035Z,8.75
2023-02-04T17:37:06.036Z,8.79
2023-02-04T17:38:06.006Z,8.87
2023-02-04T17:39:06.022Z,8.87
2023-02-04T17:40:05.977Z,8.88
2023-02-04T17:41:05.969Z,8.88
2023-02-04T17:42:05.989Z,8.76
2023-02-04T17:43:05.953Z,8.86
2023-02-04T17:44:05.932Z,8.87
2023-02-04T17:45:05.917Z,8.83
2023-02-04T17:46:05.925Z,8.88
2023-02-04T17:47:06.107Z,8.87
2023-02-04T17:48:05.925Z,8.86
2023-02-04T17:49:05.873Z,8.84
2023-02-04T17:50:05.877Z,8.84
2023-02-04T17:51:05.850Z,8.84
2023-02-04T17:52:05.859Z,8.79
2023-02-04T17:53:05.840Z,8.79
2023-02-04T17:54:05.821Z,8.76
2023-02-04T17:55:05.827Z,8.72
2023-02-04T17:56:05.814Z,8.72
2023-02-04T17:57:05.808Z,8.79
2023-02-04T17:58:05.782Z,8.90
2023-02-04T17:59:05.775Z,8.81
2023-02-04T18:00:05.752Z,8.88
2023-02-04T18:01:05.866Z,8.78
2023-02-04T18:02:05.940Z,8.87
2023-02-04T18:03:05.728Z,8.79
2023-02-04T18:04:05.728Z,8.97
2023-02-04T18:05:05.705Z,8.90
2023-02-04T18:06:05.708Z,8.84
2023-02-04T18:07:05.698Z,8.76
2023-02-04T18:08:05.661Z,8.84
2023-02-04T18:09:05.645Z,8.86
2023-02-04T18:10:06.142Z,8.84
2023-02-04T18:11:05.624Z,8.83
2023-02-04T18:12:05.635Z,8.84
2023-02-04T18:13:05.608Z,8.79
2023-02-04T18:14:05.615Z,8.76
2023-02-04T18:15:05.578Z,8.81
2023-02-04T18:16:05.617Z,8.87
2023-02-04T18:17:08.340Z,8.88
2023-02-04T18:18:05.556Z,8.79
2023-02-04T18:19:05.560Z,8.87
2023-02-04T18:20:05.545Z,8.84
2023-02-04T18:21:05.511Z,8.76
2023-02-04T18:22:05.526Z,8.75
2023-02-04T18:23:05.508Z,8.86
2023-02-04T18:24:05.496Z,8.76
2023-02-04T18:25:05.462Z,8.84
2023-02-04T18:26:05.458Z,8.75
2023-02-04T18:27:05.478Z,8.84
2023-02-04T18:28:05.470Z,8.84
2023-02-04T18:29:05.451Z,8.84
2023-02-04T18:30:05.409Z,8.79
2023-02-04T18:31:05.434Z,8.87
2023-02-04T18:32:05.399Z,8.72
2023-02-04T18:33:05.396Z,8.81
2023-02-04T18:34:05.360Z,8.72
2023-02-04T18:35:05.360Z,8.88
2023-02-04T18:36:05.370Z,8.73
2023-02-04T18:37:05.347Z,8.71
2023-02-04T18:38:05.327Z,8.78
2023-02-04T18:39:05.308Z,8.86
2023-02-04T18:40:05.304Z,8.83
2023-02-04T18:41:05.274Z,8.81
2023-02-04T18:42:05.273Z,8.86
2023-02-04T18:43:05.278Z,8.81
2023-02-04T18:44:05.249Z,8.78
2023-02-04T18:45:05.226Z,8.88
2023-02-04T18:46:05.295Z,8.79
2023-02-04T18:47:05.204Z,8.81
2023-02-04T18:48:05.212Z,8.84
2023-02-04T18:49:05.181Z,8.83
2023-02-04T18:50:05.185Z,8.88
2023-02-04T18:51:05.182Z,8.88
2023-02-04T18:52:06.582Z,8.84
2023-02-04T18:53:05.155Z,8.84
2023-02-04T18:54:05.128Z,8.87
2023-02-04T18:55:05.144Z,8.81
2023-02-04T18:56:05.117Z,8.88
2023-02-04T18:57:05.088Z,8.87
2023-02-04T18:58:05.125Z,8.84
2023-02-04T18:59:05.078Z,8.83
2023-02-04T19:00:05.060Z,8.88
2023-02-04T19:01:05.139Z,8.88
2023-02-04T19:02:05.080Z,8.97
2023-02-04T19:03:05.035Z,8.79
2023-02-04T19:04:05.012Z,8.96
2023-02-04T19:05:13.072Z,8.93
2023-02-04T19:06:05.994Z,8.97
2023-02-04T19:07:04.990Z,8.97
2023-02-04T19:08:05.005Z,9.02
2023-02-04T19:09:04.957Z,8.90
2023-02-04T19:10:04.950Z,8.97
2023-02-04T19:11:04.943Z,8.96
2023-02-04T19:12:04.937Z,8.91
2023-02-04T19:13:04.952Z,8.88
2023-02-04T19:14:04.912Z,9.01
2023-02-04T19:15:04.936Z,8.96
2023-02-04T19:16:04.895Z,8.90
2023-02-04T19:17:04.873Z,8.91
2023-02-04T19:18:04.851Z,8.93
2023-02-04T19:19:04.850Z,8.93
2023-02-04T19:20:04.830Z,8.86
2023-02-04T19:21:04.826Z,8.94
2023-02-04T19:22:04.822Z,8.93
2023-02-04T19:23:04.811Z,9.04
2023-02-04T19:24:04.847Z,8.90
2023-02-04T19:25:04.773Z,8.87
2023-02-04T19:26:04.764Z,8.93
2023-02-04T19:27:04.742Z,9.01
2023-02-04T19:28:04.782Z,8.97
2023-02-04T19:29:04.927Z,9.04
2023-02-04T19:30:04.713Z,9.01
2023-02-04T19:31:04.698Z,9.04
2023-02-04T19:32:04.699Z,9.09
2023-02-04T19:33:04.686Z,9.05
2023-02-04T19:34:04.729Z,9.01
2023-02-04T19:35:04.673Z,9.01
2023-02-04T19:36:04.656Z,9.02
2023-02-04T19:37:04.649Z,8.94
2023-02-04T19:38:04.643Z,9.13
2023-02-04T19:39:04.621Z,8.99
2023-02-04T19:40:04.646Z,8.91
2023-02-04T19:41:04.592Z,9.02
2023-02-04T19:42:04.584Z,9.01
2023-02-04T19:43:04.569Z,8.96
2023-02-04T19:44:04.558Z,9.02
2023-02-04T19:45:04.574Z,8.99
2023-02-04T19:46:04.597Z,9.01
2023-02-04T19:47:04.541Z,9.01
2023-02-04T19:48:04.517Z,8.97
2023-02-04T19:49:04.515Z,9.05
2023-02-04T19:50:04.551Z,8.96
2023-02-04T19:51:04.476Z,9.06
2023-02-04T19:52:04.486Z,8.96
2023-02-04T19:53:04.466Z,8.94
2023-02-04T19:54:04.460Z,9.10
2023-02-04T19:55:04.454Z,9.15
2023-02-04T19:56:04.446Z,9.06
2023-02-04T19:57:04.411Z,9.06
2023-02-04T19:58:04.402Z,9.15
2023-02-04T19:59:04.387Z,9.06
2023-02-04T20:00:04.396Z,9.13
2023-02-04T20:01:04.452Z,9.18
2023-02-04T20:02:04.428Z,9.06
2023-02-04T20:03:04.370Z,9.04
2023-02-04T20:04:04.349Z,9.06
2023-02-04T20:05:04.357Z,9.06
2023-02-04T20:06:04.339Z,9.06
2023-02-04T20:07:04.298Z,9.10
2023-02-04T20:08:04.304Z,8.99
2023-02-04T20:09:04.288Z,9.10
2023-02-04T20:10:04.280Z,8.91
2023-02-04T20:11:04.266Z,9.01
2023-02-04T20:12:04.286Z,8.99
2023-02-04T20:13:04.233Z,9.12
2023-02-04T20:14:04.219Z,9.04
2023-02-04T20:15:04.217Z,9.06
2023-02-04T20:16:04.280Z,9.02
2023-02-04T20:17:04.201Z,9.13
2023-02-04T20:18:04.176Z,9.05
2023-02-04T20:19:04.158Z,9.01
2023-02-04T20:20:04.206Z,9.09
2023-02-04T20:21:04.144Z,9.06
2023-02-04T20:22:04.126Z,9.15
2023-02-04T20:23:04.115Z,8.91
2023-02-04T20:24:04.121Z,9.01
2023-02-04T20:25:04.115Z,9.01
2023-02-04T20:26:04.084Z,8.96
2023-02-04T20:27:04.081Z,8.93
2023-02-04T20:28:04.158Z,9.05
2023-02-04T20:29:04.048Z,9.05
2023-02-04T20:30:04.042Z,9.01
2023-02-04T20:31:04.216Z,9.04
2023-02-04T20:32:04.029Z,8.99
2023-02-04T20:33:04.010Z,9.05
2023-02-04T20:34:04.002Z,9.04
2023-02-04T20:35:04.015Z,8.99
2023-02-04T20:36:03.982Z,8.97
2023-02-04T20:37:03.950Z,9.04
2023-02-04T20:38:03.960Z,9.01
2023-02-04T20:39:03.944Z,8.90
2023-02-04T20:40:03.943Z,9.01
2023-02-04T20:41:03.942Z,9.01
2023-02-04T20:42:03.913Z,9.01
2023-02-04T20:43:03.900Z,8.96
2023-02-04T20:44:03.898Z,8.96